Terminal Aerodrome Forecast
Issued by NWS

Home | Current Version | Previous Version | Text Only | Print | Product List | Glossary On
Versions: 1 2 3 4 5 6 7 8 9 10 11 12 13 14 15 16 17 18 19 20 21 22 23 24 25 26 27 28 29 30 31 32
000
FTUS44 KEWX 311136
TAFSSF
TAF
KSSF 311136Z 3112/0112 15005KT P6SM OVC008
     FM311500 15006KT P6SM BKN015
     FM312000 12009KT P6SM BKN040 BKN250 PROB30 3121/0103 4SM TSRA
      BR BKN035CB
     FM010600 14003KT P6SM OVC015
     FM011000 13003KT 5SM BR VCSH OVC007=

USA.gov is the U.S. government's official web portal to all federal, state and local government web resources and services.